Time;durP1;ratioP1;P1;durP2;ratioP2;P2;SDS_P1;SDS_P2;PMS_P1;PMS_P2;Temp;Humidity;BMP_temperature;BMP_pressure;BME280_temperature;BME280_humidity;BME280_pressure;Samples;Min_cycle;Max_cycle;Signal;HPM_P1;HPM_P2
2023/08/28 00:01:16;;;;;;;0.55;0.20;;;;;;;;;;6134855;23;20005;-73
2023/08/28 00:03:42;;;;;;;0.20;0.10;;;;;;;;;;6134717;23;20076;-73
2023/08/28 00:06:08;;;;;;;0.40;0.30;;;;;;;;;;6125758;23;20013;-73
2023/08/28 00:08:35;;;;;;;0.45;0.30;;;;;;;;;;6125268;23;20438;-73
2023/08/28 00:11:02;;;;;;;0.40;0.17;;;;;;;;;;6125022;23;20002;-73
2023/08/28 00:13:29;;;;;;;0.85;0.30;;;;;;;;;;6125019;23;20041;-73
2023/08/28 00:15:55;;;;;;;0.82;0.30;;;;;;;;;;6125222;23;20002;-72
2023/08/28 00:18:22;;;;;;;0.43;0.10;;;;;;;;;;6124729;23;20465;-73
2023/08/28 00:20:48;;;;;;;0.50;0.30;;;21.10;71.90;;;;;;6124938;23;20058;-73
2023/08/28 00:23:15;;;;;;;0.73;0.43;;;;;;;;;;6125539;23;20032;-72
2023/08/28 00:25:41;;;;;;;0.50;0.40;;;;;;;;;;6124573;23;20010;-72
2023/08/28 00:28:08;;;;;;;0.20;0.20;;;;;;;;;;6124542;23;20521;-72
2023/08/28 00:30:34;;;;;;;0.40;0.10;;;;;;;;;;6124723;23;20398;-72
2023/08/28 00:33:01;;;;;;;0.60;0.30;;;;;;;;;;6124704;23;20006;-77
2023/08/28 00:35:42;;;;;;;0.52;0.25;;;;;;;;;;6125058;23;20001;-77
2023/08/28 00:38:09;;;;;;;1.13;0.32;;;21.10;75.00;;;;;;6147099;23;20024;-78
2023/08/28 00:40:40;;;;;;;0.25;0.20;;;;;;;;;;6125062;23;20458;-77
2023/08/28 00:43:06;;;;;;;0.35;0.20;;;;;;;;;;6134953;23;20009;-78
2023/08/28 00:45:32;;;;;;;0.75;0.20;;;;;;;;;;6134668;23;20018;-78
2023/08/28 00:47:58;;;;;;;0.22;0.20;;;;;;;;;;6134563;23;20025;-78
2023/08/28 00:50:24;;;;;;;1.13;0.30;;;;;;;;;;6135025;23;20394;-73
2023/08/28 00:52:50;;;;;;;1.02;0.25;;;;;;;;;;6134513;23;20527;-73
2023/08/28 00:55:17;;;;;;;0.30;0.30;;;;;;;;;;6135545;23;20005;-74
2023/08/28 00:57:43;;;;;;;1.10;0.30;;;;;;;;;;6125822;23;20015;-74
2023/08/28 01:00:10;;;;;;;0.30;0.30;;;;;;;;;;6125318;23;20457;-73
2023/08/28 01:02:43;;;;;;;0.65;0.25;;;;;;;;;;6125200;23;20248;-77
2023/08/28 01:05:09;;;;;;;0.40;0.30;;;;;;;;;;6125232;23;20303;-77
2023/08/28 01:07:42;;;;;;;0.30;0.20;;;;;;;;;;6134283;23;20002;-78
2023/08/28 01:10:21;;;;;;;0.20;0.20;;;21.00;75.40;;;;;;6134801;23;19994;-77
2023/08/28 01:13:26;;;;;;;0.52;0.30;;;21.10;75.80;;;;;;6124870;23;20437;-77
2023/08/28 01:15:53;;;;;;;0.40;0.28;;;;;;;;;;6125401;23;20005;-77
2023/08/28 01:18:20;;;;;;;0.50;0.38;;;21.00;73.40;;;;;;6135033;23;20334;-78
2023/08/28 01:20:48;;;;;;;0.20;0.17;;;21.00;74.10;;;;;;6125545;23;20002;-78
2023/08/28 01:23:18;;;;;;;0.90;0.20;;;;;;;;;;6125160;23;19994;-78
2023/08/28 01:25:44;;;;;;;0.10;0.10;;;;;;;;;;6125226;23;20072;-77
2023/08/28 01:28:11;;;;;;;0.45;0.38;;;;;;;;;;6124880;23;20049;-77
2023/08/28 01:30:37;;;;;;;0.20;0.20;;;;;;;;;;6124835;23;20330;-77
2023/08/28 01:33:03;;;;;;;0.65;0.17;;;;;;;;;;6134314;23;20045;-78
2023/08/28 01:35:31;;;;;;;0.22;0.22;;;20.90;75.40;;;;;;6133945;23;20151;-77
2023/08/28 01:38:03;;;;;;;0.25;0.20;;;;;;;;;;6133453;23;20013;-77
2023/08/28 01:40:57;;;;;;;0.60;0.40;;;21.00;75.50;;;;;;6133749;23;20006;-77
2023/08/28 01:43:26;;;;;;;0.93;0.40;;;21.00;75.30;;;;;;6121283;23;20038;-77
2023/08/28 01:45:52;;;;;;;0.28;0.20;;;;;;;;;;6133893;23;20029;-78
2023/08/28 01:48:18;;;;;;;0.93;0.30;;;;;;;;;;6134283;23;20031;-73
2023/08/28 01:50:44;;;;;;;0.30;0.30;;;;;;;;;;6133222;23;19998;-73
2023/08/28 01:53:11;;;;;;;0.52;0.22;;;21.00;75.20;;;;;;6133772;23;20113;-73
2023/08/28 01:55:40;;;;;;;0.32;0.30;;;20.90;69.50;;;;;;6124337;23;20044;-73
2023/08/28 01:58:07;;;;;;;0.43;0.20;;;;;;;;;;6133635;23;20071;-77
2023/08/28 02:00:34;;;;;;;0.60;0.30;;;;;;;;;;6124058;23;20576;-73
2023/08/28 02:03:00;;;;;;;0.52;0.40;;;;;;;;;;6124216;23;20050;-73
2023/08/28 02:05:27;;;;;;;0.80;0.40;;;;;;;;;;6133807;23;20077;-72
2023/08/28 02:07:53;;;;;;;0.40;0.15;;;;;;;;;;6133643;23;19994;-73
2023/08/28 02:10:19;;;;;;;0.85;0.20;;;;;;;;;;6133644;23;20006;-73
2023/08/28 02:12:45;;;;;;;0.20;0.20;;;;;;;;;;6124242;23;20072;-73
2023/08/28 02:15:16;;;;;;;0.50;0.20;;;;;;;;;;6124282;23;20002;-77
2023/08/28 02:17:45;;;;;;;1.10;0.35;;;;;;;;;;6124093;23;20013;-77
2023/08/28 02:20:12;;;;;;;0.50;0.20;;;;;;;;;;6124251;23;20318;-78
2023/08/28 02:22:38;;;;;;;0.10;0.10;;;;;;;;;;6124069;23;20008;-77
2023/08/28 02:25:07;;;;;;;0.30;0.30;;;;;;;;;;6124635;23;20008;-78
2023/08/28 02:27:51;;;;;;;0.77;0.38;;;;;;;;;;6125695;23;20017;-77
2023/08/28 02:30:18;;;;;;;0.25;0.20;;;;;;;;;;6124472;23;20029;-78
2023/08/28 02:32:47;;;;;;;1.10;0.22;;;;;;;;;;6124151;23;20326;-76
2023/08/28 02:35:14;;;;;;;0.52;0.30;;;;;;;;;;6123883;23;20533;-77
2023/08/28 02:37:40;;;;;;;1.10;0.30;;;;;;;;;;6123588;23;20010;-77
2023/08/28 02:40:09;;;;;;;0.20;0.20;;;;;;;;;;6124148;23;20017;-78
2023/08/28 02:42:36;;;;;;;1.50;0.30;;;;;;;;;;6124356;23;20010;-78
2023/08/28 02:45:04;;;;;;;0.73;0.22;;;;;;;;;;6124297;23;20006;-78
2023/08/28 02:47:30;;;;;;;0.82;0.30;;;;;;;;;;6124276;23;20006;-77
2023/08/28 02:49:57;;;;;;;1.42;0.40;;;;;;;;;;6124095;23;20093;-77
2023/08/28 02:52:23;;;;;;;0.85;0.30;;;;;;;;;;6124338;23;20030;-77
2023/08/28 02:54:50;;;;;;;0.32;0.20;;;;;;;;;;6124000;23;20057;-73
2023/08/28 02:57:16;;;;;;;0.95;0.30;;;;;;;;;;6123788;23;20037;-77
2023/08/28 02:59:43;;;;;;;0.90;0.32;;;;;;;;;;6123581;23;20010;-78
2023/08/28 03:02:09;;;;;;;1.20;0.45;;;;;;;;;;6125543;23;20068;-77
2023/08/28 03:04:36;;;;;;;1.02;0.20;;;;;;;;;;6126173;23;20102;-77
2023/08/28 03:07:03;;;;;;;0.28;0.20;;;;;;;;;;6126096;23;20053;-77
2023/08/28 03:09:29;;;;;;;0.60;0.20;;;;;;;;;;6126242;23;20454;-77
2023/08/28 03:11:56;;;;;;;0.35;0.20;;;;;;;;;;6149906;23;20406;-72
2023/08/28 03:14:22;;;;;;;0.68;0.20;;;;;;;;;;6125408;23;20002;-73
2023/08/28 03:16:48;;;;;;;0.52;0.13;;;;;;;;;;6135255;23;20009;-73
2023/08/28 03:19:14;;;;;;;0.10;0.10;;;;;;;;;;6134968;23;20006;-73
2023/08/28 03:21:40;;;;;;;0.60;0.30;;;;;;;;;;6135159;23;20009;-73
2023/08/28 03:24:06;;;;;;;0.13;0.10;;;20.80;73.00;;;;;;6135189;23;20002;-73
2023/08/28 03:26:33;;;;;;;0.20;0.20;;;;;;;;;;6135162;23;20001;-73
2023/08/28 03:28:59;;;;;;;0.75;0.30;;;;;;;;;;6125662;23;20085;-73
2023/08/28 03:31:26;;;;;;;0.30;0.20;;;20.70;75.70;;;;;;6135072;23;19998;-73
2023/08/28 03:33:52;;;;;;;0.85;0.20;;;;;;;;;;6135033;23;19998;-73
2023/08/28 03:36:18;;;;;;;0.50;0.30;;;;;;;;;;6135026;23;20001;-73
2023/08/28 03:38:44;;;;;;;1.42;0.40;;;;;;;;;;6134694;23;20358;-74
2023/08/28 03:41:13;;;;;;;1.08;0.20;;;;;;;;;;6135626;23;20140;-78
2023/08/28 03:43:41;;;;;;;0.28;0.22;;;;;;;;;;6120110;23;20116;-78
2023/08/28 03:46:07;;;;;;;1.85;0.22;;;;;;;;;;6125817;23;19998;-78
2023/08/28 03:48:33;;;;;;;1.02;0.50;;;;;;;;;;6125451;23;20021;-78
2023/08/28 03:51:00;;;;;;;0.52;0.20;;;;;;;;;;6125199;23;20510;-78
2023/08/28 03:53:27;;;;;;;0.95;0.38;;;;;;;;;;6125125;23;20009;-73
2023/08/28 03:55:54;;;;;;;0.35;0.25;;;;;;;;;;6125002;23;20009;-73
2023/08/28 03:58:22;;;;;;;0.40;0.20;;;;;;;;;;6125223;23;20009;-73
2023/08/28 04:08:35;;;;;;;0.45;0.20;;;;;;;;;;6124408;23;20030;-77
2023/08/28 04:11:01;;;;;;;0.30;0.30;;;;;;;;;;6134960;23;20064;-77
2023/08/28 04:13:27;;;;;;;0.82;0.40;;;;;;;;;;6134364;23;20459;-78
2023/08/28 04:15:53;;;;;;;0.20;0.20;;;;;;;;;;6098965;23;20033;-78
2023/08/28 04:18:19;;;;;;;0.60;0.30;;;;;;;;;;6134612;23;20001;-73
2023/08/28 04:20:45;;;;;;;0.75;0.30;;;;;;;;;;6134664;23;20032;-73
2023/08/28 04:23:13;;;;;;;0.20;0.20;;;;;;;;;;6134586;23;20065;-72
2023/08/28 04:25:39;;;;;;;0.47;0.30;;;;;;;;;;6134446;23;20024;-73
2023/08/28 04:28:05;;;;;;;0.90;0.20;;;;;;;;;;6134490;23;19994;-73
2023/08/28 04:30:31;;;;;;;0.63;0.40;;;;;;;;;;6134174;23;20021;-72
2023/08/28 04:32:57;;;;;;;0.20;0.20;;;;;;;;;;6134180;23;20433;-72
2023/08/28 04:35:23;;;;;;;0.82;0.32;;;;;;;;;;6134914;23;19998;-77
2023/08/28 04:37:50;;;;;;;0.20;0.20;;;;;;;;;;6134779;23;19994;-78
2023/08/28 04:40:16;;;;;;;0.68;0.20;;;;;;;;;;6134608;23;20010;-77
2023/08/28 04:42:42;;;;;;;0.77;0.20;;;;;;;;;;6134523;23;20083;-78
2023/08/28 04:45:08;;;;;;;0.52;0.45;;;;;;;;;;6134795;23;20002;-78
2023/08/28 04:47:34;;;;;;;0.20;0.20;;;;;;;;;;6134424;23;20456;-78
2023/08/28 04:50:01;;;;;;;0.90;0.20;;;;;;;;;;6124793;23;20069;-78
2023/08/28 04:52:27;;;;;;;0.68;0.30;;;;;;;;;;6124361;23;20032;-78
2023/08/28 04:54:54;;;;;;;0.32;0.20;;;;;;;;;;6098560;23;20010;-78
2023/08/28 04:57:20;;;;;;;0.55;0.20;;;;;;;;;;6098804;23;20077;-78
2023/08/28 04:59:47;;;;;;;0.30;0.20;;;;;;;;;;6124655;23;20020;-78
2023/08/28 05:02:13;;;;;;;0.52;0.30;;;;;;;;;;6124337;23;20081;-78
2023/08/28 05:04:39;;;;;;;1.02;0.22;;;;;;;;;;6134883;23;19998;-78
2023/08/28 05:07:07;;;;;;;0.22;0.20;;;;;;;;;;6134465;23;20108;-77
2023/08/28 05:09:33;;;;;;;0.30;0.30;;;;;;;;;;6133940;23;20161;-78
2023/08/28 05:11:59;;;;;;;1.35;0.30;;;;;;;;;;6133914;23;20006;-78
2023/08/28 05:14:26;;;;;;;0.35;0.20;;;;;;;;;;6124570;23;20006;-74
2023/08/28 05:16:52;;;;;;;0.80;0.20;;;;;;;;;;6124671;23;20005;-78
2023/08/28 05:19:19;;;;;;;0.38;0.20;;;;;;;;;;6124193;23;20010;-78
2023/08/28 05:21:45;;;;;;;0.10;0.10;;;;;;;;;;6129553;23;20073;-79
2023/08/28 05:24:12;;;;;;;0.20;0.20;;;;;;;;;;6126403;23;20005;-76
2023/08/28 05:26:38;;;;;;;1.25;0.20;;;;;;;;;;6124494;23;20005;-76
2023/08/28 05:29:05;;;;;;;0.60;0.20;;;;;;;;;;6123815;23;20010;-76
2023/08/28 05:31:31;;;;;;;0.30;0.22;;;;;;;;;;6124940;23;20053;-76
2023/08/28 05:33:58;;;;;;;1.55;0.22;;;;;;;;;;6123998;23;20013;-76
2023/08/28 05:36:24;;;;;;;0.40;0.30;;;;;;;;;;6124352;23;20025;-78
2023/08/28 05:38:51;;;;;;;0.30;0.20;;;;;;;;;;6124515;23;20081;-79
2023/08/28 05:41:17;;;;;;;1.15;0.20;;;;;;;;;;6124181;23;20021;-78
2023/08/28 05:43:44;;;;;;;1.55;0.15;;;;;;;;;;6124153;23;20013;-72
2023/08/28 05:46:10;;;;;;;0.45;0.32;;;;;;;;;;6123987;23;20002;-72
2023/08/28 05:48:37;;;;;;;0.22;0.22;;;;;;;;;;6124019;23;20006;-73
2023/08/28 05:51:03;;;;;;;0.40;0.20;;;;;;;;;;6126076;23;20006;-72
2023/08/28 05:53:30;;;;;;;0.30;0.20;;;;;;;;;;6126342;23;20002;-73
2023/08/28 05:55:56;;;;;;;0.70;0.20;;;;;;;;;;6124761;23;20029;-77
2023/08/28 05:58:23;;;;;;;1.15;0.65;;;;;;;;;;6124034;23;20017;-73
2023/08/28 06:00:49;;;;;;;0.98;0.38;;;;;;;;;;6124976;23;20020;-80
2023/08/28 06:03:16;;;;;;;0.90;0.20;;;;;;;;;;6099121;23;20009;-81
2023/08/28 06:05:42;;;;;;;0.43;0.30;;;;;;;;;;6124517;23;20337;-78
2023/08/28 06:08:09;;;;;;;0.25;0.25;;;;;;;;;;6124326;23;19998;-78
2023/08/28 06:10:40;;;;;;;0.40;0.30;;;;;;;;;;6123899;23;20036;-78
2023/08/28 06:13:07;;;;;;;0.77;0.20;;;20.50;76.90;;;;;;6124213;23;20009;-78
2023/08/28 06:15:33;;;;;;;1.95;0.20;;;;;;;;;;6124039;23;20431;-78
2023/08/28 06:18:00;;;;;;;0.88;0.35;;;;;;;;;;6123856;23;20002;-79
2023/08/28 06:20:26;;;;;;;0.17;0.17;;;;;;;;;;6123862;23;20040;-78
2023/08/28 06:22:53;;;;;;;0.32;0.20;;;;;;;;;;6124449;23;20002;-78
2023/08/28 06:25:19;;;;;;;1.10;0.30;;;;;;;;;;6124418;23;20325;-78
2023/08/28 06:27:46;;;;;;;0.20;0.20;;;;;;;;;;6124034;23;20013;-77
2023/08/28 06:30:12;;;;;;;1.90;0.30;;;;;;;;;;6135254;23;19998;-79
2023/08/28 06:32:38;;;;;;;0.50;0.30;;;;;;;;;;6098187;23;20025;-77
2023/08/28 06:35:05;;;;;;;0.40;0.20;;;;;;;;;;6123749;23;20034;-77
2023/08/28 06:37:31;;;;;;;0.47;0.20;;;;;;;;;;6135608;23;20040;-77
2023/08/28 06:39:57;;;;;;;1.23;0.20;;;;;;;;;;6135392;23;20010;-77
2023/08/28 06:42:23;;;;;;;0.50;0.30;;;;;;;;;;6135464;23;20349;-79
2023/08/28 06:44:49;;;;;;;0.50;0.45;;;;;;;;;;6135308;23;20131;-77
2023/08/28 06:47:15;;;;;;;0.30;0.30;;;;;;;;;;6135570;23;20025;-78
2023/08/28 06:49:41;;;;;;;0.55;0.30;;;20.60;77.30;;;;;;6135650;23;20449;-77
2023/08/28 06:52:08;;;;;;;0.40;0.20;;;;;;;;;;6135591;23;20004;-77
2023/08/28 06:54:34;;;;;;;0.40;0.30;;;;;;;;;;6135582;23;20032;-78
2023/08/28 06:57:00;;;;;;;2.13;0.30;;;;;;;;;;6135659;23;19998;-80
2023/08/28 06:59:27;;;;;;;0.50;0.20;;;;;;;;;;6135565;23;20322;-87
2023/08/28 07:01:53;;;;;;;0.40;0.30;;;;;;;;;;6099606;23;19998;-79
2023/08/28 07:04:19;;;;;;;2.08;0.40;;;;;;;;;;6135244;23;20009;-80
2023/08/28 07:06:45;;;;;;;0.40;0.28;;;;;;;;;;6135351;23;19994;-78
2023/08/28 07:09:11;;;;;;;0.20;0.20;;;;;;;;;;6135334;23;20014;-77
2023/08/28 07:11:37;;;;;;;0.30;0.15;;;;;;;;;;6135650;23;20441;-79
2023/08/28 07:14:03;;;;;;;0.88;0.30;;;;;;;;;;6135289;23;20002;-79
2023/08/28 07:16:29;;;;;;;0.30;0.20;;;;;;;;;;6136107;23;20369;-72
2023/08/28 07:18:55;;;;;;;0.80;0.22;;;;;;;;;;6135160;23;20013;-72
2023/08/28 07:21:21;;;;;;;0.95;0.20;;;;;;;;;;6135135;23;20009;-72
2023/08/28 07:23:49;;;;;;;0.20;0.20;;;;;;;;;;6135243;23;20302;-72
2023/08/28 07:26:16;;;;;;;0.22;0.20;;;;;;;;;;6124730;23;20002;-72
2023/08/28 07:28:42;;;;;;;0.40;0.20;;;;;;;;;;6125516;23;20472;-73
2023/08/28 07:31:10;;;;;;;0.22;0.22;;;;;;;;;;6135146;23;19994;-73
2023/08/28 07:33:36;;;;;;;0.80;0.40;;;;;;;;;;6135303;23;20024;-73
2023/08/28 07:36:03;;;;;;;0.38;0.30;;;;;;;;;;6135081;23;20378;-73
2023/08/28 07:38:29;;;;;;;0.22;0.20;;;;;;;;;;6135093;23;20081;-72
2023/08/28 07:40:55;;;;;;;0.98;0.28;;;;;;;;;;6135180;23;20077;-72
2023/08/28 07:43:21;;;;;;;2.47;0.30;;;;;;;;;;6135362;23;20022;-73
2023/08/28 07:45:47;;;;;;;0.45;0.20;;;;;;;;;;6135576;23;20001;-72
2023/08/28 07:48:13;;;;;;;0.88;0.20;;;;;;;;;;6125473;23;20002;-73
2023/08/28 07:50:40;;;;;;;1.58;0.28;;;;;;;;;;6135027;23;20002;-73
2023/08/28 07:53:06;;;;;;;0.40;0.30;;;;;;;;;;6135044;23;20325;-72
2023/08/28 07:55:32;;;;;;;1.08;0.30;;;;;;;;;;6134823;23;20092;-76
2023/08/28 07:57:58;;;;;;;2.72;0.30;;;;;;;;;;6125809;23;20084;-77
2023/08/28 08:00:24;;;;;;;0.30;0.20;;;;;;;;;;6135207;23;20365;-75
2023/08/28 08:02:53;;;;;;;0.20;0.20;;;;;;;;;;6134380;23;19998;-76
2023/08/28 08:05:20;;;;;;;0.38;0.30;;;;;;;;;;6135156;23;20381;-76
2023/08/28 08:07:46;;;;;;;1.10;0.28;;;;;;;;;;6125375;23;20009;-77
2023/08/28 08:10:13;;;;;;;2.72;0.20;;;20.90;78.70;;;;;;6125057;23;20060;-76
2023/08/28 08:12:39;;;;;;;0.52;0.20;;;;;;;;;;6135218;23;20417;-74
2023/08/28 08:15:06;;;;;;;0.75;0.20;;;20.90;78.50;;;;;;6135078;23;20307;-80
2023/08/28 08:17:33;;;;;;;1.00;0.20;;;;;;;;;;6137275;23;19998;-76
2023/08/28 08:19:59;;;;;;;0.30;0.20;;;;;;;;;;6128297;23;20085;-77
2023/08/28 08:22:26;;;;;;;0.30;0.20;;;;;;;;;;6099386;23;20077;-75
2023/08/28 08:24:52;;;;;;;0.85;0.20;;;20.90;74.50;;;;;;6135027;23;20021;-73
2023/08/28 08:27:18;;;;;;;1.35;0.40;;;;;;;;;;6134776;23;20488;-72
2023/08/28 08:29:44;;;;;;;0.95;0.50;;;;;;;;;;6134675;23;20014;-73
2023/08/28 08:32:10;;;;;;;0.20;0.20;;;;;;;;;;6134572;23;19994;-73
2023/08/28 08:34:36;;;;;;;0.40;0.15;;;;;;;;;;6098941;23;20085;-72
2023/08/28 08:37:02;;;;;;;0.55;0.20;;;;;;;;;;6134584;23;20329;-73
2023/08/28 08:39:28;;;;;;;1.13;0.38;;;;;;;;;;6134525;23;20009;-77
2023/08/28 08:41:54;;;;;;;0.73;0.30;;;;;;;;;;6134841;23;20029;-78
2023/08/28 08:44:21;;;;;;;2.30;0.47;;;;;;;;;;6134954;23;19998;-79
2023/08/28 08:46:49;;;;;;;0.32;0.30;;;21.90;79.20;;;;;;6134543;23;20330;-81
2023/08/28 08:49:20;;;;;;;2.35;0.60;;;21.20;78.40;;;;;;6109118;23;20076;-81
2023/08/28 08:51:46;;;;;;;0.40;0.10;;;;;;;;;;6098474;23;19998;-71
2023/08/28 08:54:23;;;;;;;0.55;0.20;;;21.20;72.90;;;;;;6133879;23;20029;-71
2023/08/28 08:56:53;;;;;;;0.95;0.30;;;21.30;78.60;;;;;;6134566;23;20001;-71
2023/08/28 08:59:22;;;;;;;0.17;0.15;;;21.20;78.70;;;;;;6124613;23;20062;-71
2023/08/28 09:01:49;;;;;;;0.52;0.28;;;;;;;;;;6134375;23;19998;-71
2023/08/28 09:04:15;;;;;;;1.75;0.20;;;21.30;75.50;;;;;;6134537;23;20002;-71
2023/08/28 09:06:41;;;;;;;1.35;0.30;;;;;;;;;;6134657;23;19998;-71
2023/08/28 09:09:11;;;;;;;0.98;0.30;;;;;;;;;;6134181;23;20024;-83
2023/08/28 09:11:39;;;;;;;;;;;21.30;78.80;;;;;;6135239;23;20004;-82
2023/08/28 09:14:05;;;;;;;0.43;0.30;;;;;;;;;;6134599;23;19905;-82
2023/08/28 09:16:34;;;;;;;0.77;0.20;;;21.50;78.60;;;;;;6134558;23;19998;-83
2023/08/28 09:19:00;;;;;;;0.38;0.20;;;;;;;;;;6134510;23;20144;-83
2023/08/28 09:21:33;;;;;;;1.70;0.30;;;;;;;;;;6125198;23;20102;-83
2023/08/28 09:24:00;;;;;;;0.80;0.40;;;;;;;;;;6124962;23;19998;-83
2023/08/28 09:26:27;;;;;;;1.20;0.50;;;;;;;;;;6124597;23;20024;-83
2023/08/28 09:29:00;;;;;;;0.63;0.25;;;22.10;78.70;;;;;;6124668;23;20026;-84
2023/08/28 09:31:28;;;;;;;0.35;0.30;;;;;;;;;;6098991;23;20073;-83
2023/08/28 09:33:55;;;;;;;0.30;0.20;;;;;;;;;;6124548;23;20008;-84
2023/08/28 09:36:21;;;;;;;0.90;0.30;;;;;;;;;;6124548;23;20438;-87
2023/08/28 09:38:48;;;;;;;0.70;0.32;;;;;;;;;;6124598;23;20014;-82
2023/08/28 09:41:14;;;;;;;1.02;0.30;;;;;;;;;;6124830;23;20006;-80
2023/08/28 09:43:41;;;;;;;2.25;0.47;;;22.10;78.00;;;;;;6124367;23;20033;-78
2023/08/28 09:46:08;;;;;;;1.30;0.30;;;;;;;;;;6124336;23;20001;-73
2023/08/28 09:48:35;;;;;;;1.00;0.35;;;22.20;76.00;;;;;;6134433;23;20010;-73
2023/08/28 09:51:04;;;;;;;0.40;0.28;;;22.40;76.00;;;;;;6124545;23;20546;-73
2023/08/28 09:53:30;;;;;;;0.43;0.30;;;22.40;75.00;;;;;;6134310;23;20006;-74
2023/08/28 09:55:57;;;;;;;1.95;0.20;;;22.40;76.70;;;;;;6134228;23;19998;-73
2023/08/28 09:58:25;;;;;;;1.13;0.30;;;22.50;77.50;;;;;;6134218;23;20002;-72
2023/08/28 10:00:51;;;;;;;0.52;0.40;;;;;;;;;;6134247;23;20480;-73
2023/08/28 10:03:17;;;;;;;0.93;0.30;;;;;;;;;;6134124;23;20421;-75
2023/08/28 10:05:45;;;;;;;3.38;0.30;;;22.70;77.30;;;;;;6134229;23;20009;-77
2023/08/28 10:08:12;;;;;;;0.65;0.32;;;22.80;77.10;;;;;;6134191;23;20021;-78
2023/08/28 10:10:40;;;;;;;0.47;0.30;;;;;;;;;;6134533;23;20014;-78
2023/08/28 10:13:13;;;;;;;0.28;0.20;;;22.70;77.30;;;;;;6136053;23;20076;-74
2023/08/28 10:16:04;;;;;;;0.88;0.30;;;22.60;77.60;;;;;;6136128;23;20053;-78
2023/08/28 10:18:43;;;;;;;0.30;0.20;;;22.70;77.50;;;;;;6125289;23;20349;-77
2023/08/28 10:21:09;;;;;;;0.40;0.40;;;;;;;;;;6136016;23;20097;-78
2023/08/28 10:23:35;;;;;;;1.20;0.40;;;;;;;;;;6136522;23;20078;-74
2023/08/28 10:26:02;;;;;;;0.22;0.17;;;22.70;75.10;;;;;;6135695;23;20001;-73
2023/08/28 10:28:30;;;;;;;1.95;0.88;;;22.60;78.60;;;;;;6135953;23;20513;-73
2023/08/28 10:30:57;;;;;;;0.20;0.10;;;;;;;;;;6135808;23;19998;-73
2023/08/28 10:33:23;;;;;;;0.80;0.35;;;;;;;;;;6135801;23;20402;-72
2023/08/28 10:35:53;;;;;;;2.53;0.40;;;22.60;73.10;;;;;;6135742;23;20090;-72
2023/08/28 10:38:20;;;;;;;0.88;0.30;;;;;;;;;;6135778;23;20005;-73
2023/08/28 10:40:50;;;;;;;1.13;0.30;;;;;;;;;;6135719;23;20009;-72
2023/08/28 10:43:19;;;;;;;0.57;0.20;;;22.70;79.30;;;;;;6099975;23;20338;-73
2023/08/28 10:45:45;;;;;;;0.70;0.22;;;;;;;;;;6135690;23;20006;-73
2023/08/28 10:48:12;;;;;;;1.27;0.25;;;;;;;;;;6125639;23;20444;-74
2023/08/28 10:50:39;;;;;;;0.57;0.40;;;;;;;;;;6125871;23;20046;-73
2023/08/28 10:53:06;;;;;;;0.52;0.30;;;;;;;;;;6126082;23;20341;-73
2023/08/28 10:55:32;;;;;;;0.68;0.30;;;;;;;;;;6135494;23;19994;-73
2023/08/28 10:58:03;;;;;;;0.85;0.30;;;22.70;73.40;;;;;;6135836;23;19998;-74
2023/08/28 11:06:44;;;;;;;1.10;0.40;;;22.90;79.10;;;;;;6135739;23;20090;-77
2023/08/28 11:09:28;;;;;;;0.95;0.20;;;;;;;;;;6123053;23;20072;-77
2023/08/28 11:35:28;;;;;;;0.60;0.30;;;;;;;;;;6105065;23;20009;-79
